createdAt,value
2019-04-29T00:11:34.832Z,4.1
2019-04-29T00:28:19.445Z,4.1
2019-04-29T00:45:03.939Z,4.1
2019-04-29T01:01:48.562Z,4.1
2019-04-29T01:18:32.845Z,4.1
2019-04-29T01:35:17.301Z,4.1
2019-04-29T01:52:01.685Z,4.0
2019-04-29T02:08:45.803Z,4.0
2019-04-29T02:25:30.140Z,4.0
2019-04-29T02:42:15.059Z,4.0
2019-04-29T02:58:58.595Z,4.0
2019-04-29T03:15:42.792Z,4.0
2019-04-29T03:32:26.770Z,4.0
2019-04-29T03:49:10.728Z,3.9
2019-04-29T04:05:54.648Z,3.9
2019-04-29T04:22:38.528Z,3.9
2019-04-29T04:39:22.389Z,3.9
2019-04-29T04:56:06.539Z,3.9
2019-04-29T05:12:50.360Z,4.0
2019-04-29T05:29:34.474Z,4.1
2019-04-29T05:46:21.480Z,4.2
2019-04-29T06:03:02.983Z,4.3
2019-04-29T06:19:47.992Z,4.5
2019-04-29T06:36:33.026Z,4.6
2019-04-29T06:53:21.211Z,4.5
2019-04-29T07:10:10.072Z,4.5
2019-04-29T07:26:49.765Z,4.5
2019-04-29T07:43:38.663Z,4.6
2019-04-29T08:00:21.025Z,4.6
2019-04-29T08:17:07.305Z,4.6
2019-04-29T08:33:53.882Z,4.6
2019-04-29T08:50:40.717Z,4.6
2019-04-29T09:07:27.923Z,4.6
2019-04-29T09:24:15.302Z,4.6
2019-04-29T09:41:02.591Z,4.6
2019-04-29T09:57:50.138Z,4.6
2019-04-29T10:14:37.826Z,4.6
2019-04-29T10:23:02.276Z,4.6
2019-04-29T10:33:05.977Z,4.6
2019-04-29T10:49:53.061Z,4.6
2019-04-29T11:06:43.904Z,4.6
2019-04-29T11:23:27.613Z,4.6
2019-04-29T11:40:14.955Z,4.6
2019-04-29T11:57:02.290Z,4.6
2019-04-29T12:13:49.652Z,4.6
2019-04-29T12:18:51.935Z,4.6
2019-04-29T12:35:51.020Z,4.6
2019-04-29T12:52:27.290Z,4.6
2019-04-29T13:09:17.845Z,4.6
2019-04-29T13:26:02.171Z,4.6
2019-04-29T13:42:51.039Z,4.5
2019-04-29T13:59:36.571Z,4.5
2019-04-29T14:16:23.686Z,4.5
2019-04-29T14:33:10.644Z,4.5
2019-04-29T14:49:57.756Z,4.5
2019-04-29T15:06:44.942Z,4.5
2019-04-29T15:23:32.994Z,4.4
2019-04-29T15:40:20.401Z,4.4
2019-04-29T15:57:09.278Z,4.4
2019-04-29T16:14:08.273Z,4.4
2019-04-29T16:30:40.069Z,4.4
2019-04-29T16:47:26.195Z,4.4
2019-04-29T17:04:13.207Z,4.4
2019-04-29T17:21:05.343Z,4.4
2019-04-29T17:37:46.995Z,4.4
2019-04-29T17:54:34.821Z,4.3
2019-04-29T18:11:22.045Z,4.3
2019-04-29T18:28:08.427Z,4.3
2019-04-29T18:45:00.163Z,4.3
2019-04-29T19:01:42.552Z,4.2
2019-04-29T19:18:28.709Z,4.2
2019-04-29T19:35:16.820Z,4.2
2019-04-29T19:52:01.573Z,4.2
2019-04-29T20:08:54.626Z,4.2
2019-04-29T20:25:38.118Z,4.2
2019-04-29T20:42:20.327Z,4.2
2019-04-29T20:59:12.528Z,4.2
2019-04-29T21:15:53.765Z,4.2
2019-04-29T21:32:39.020Z,4.1
2019-04-29T21:49:25.772Z,4.1
2019-04-29T22:06:10.952Z,4.1
2019-04-29T22:22:57.104Z,4.1
2019-04-29T22:39:43.130Z,4.1
2019-04-29T22:56:29.186Z,4.1
2019-04-29T23:13:15.112Z,4.1
2019-04-29T23:30:01.027Z,4.1
2019-04-29T23:46:47.487Z,4.1
